createdAt,value
2022-10-18T00:02:07.396Z,14.57
2022-10-18T00:04:33.970Z,13.62
2022-10-18T00:38:28.637Z,13.55
2022-10-18T00:40:55.164Z,15.02
2022-10-18T00:43:21.681Z,14.32
2022-10-18T00:45:48.409Z,14.02
2022-10-18T00:48:15.095Z,14.60
2022-10-18T00:50:41.786Z,14.38
2022-10-18T00:53:11.773Z,14.48
2022-10-18T00:55:38.306Z,14.85
2022-10-18T00:58:04.876Z,14.85
2022-10-18T01:00:31.585Z,14.35
2022-10-18T01:02:58.471Z,13.20
2022-10-18T01:05:25.000Z,14.57
2022-10-18T01:08:13.256Z,14.02
2022-10-18T01:10:42.560Z,13.97
2022-10-18T01:13:08.915Z,13.27
2022-10-18T01:15:59.393Z,13.77
2022-10-18T01:18:31.001Z,13.05
2022-10-18T01:21:00.571Z,13.35
2022-10-18T01:23:54.874Z,13.07
2022-10-18T01:26:30.421Z,13.55
2022-10-18T01:29:15.594Z,13.15
2022-10-18T01:32:02.464Z,13.10
2022-10-18T01:34:31.914Z,14.20
2022-10-18T01:36:58.471Z,14.02
2022-10-18T01:39:27.961Z,13.40
2022-10-18T01:41:54.498Z,13.43
2022-10-18T01:44:25.858Z,13.82
2022-10-18T01:46:53.151Z,13.13
2022-10-18T01:49:19.725Z,13.80
2022-10-18T01:51:46.380Z,12.30
2022-10-18T01:54:13.469Z,11.45
2022-10-18T01:56:48.418Z,12.25
2022-10-18T01:59:14.784Z,12.68
2022-10-18T02:01:48.429Z,12.37
2022-10-18T02:04:34.050Z,12.32
2022-10-18T02:07:39.600Z,12.35
2022-10-18T02:10:13.092Z,12.68
2022-10-18T02:12:41.649Z,13.13
2022-10-18T02:15:09.907Z,12.52
2022-10-18T02:17:36.448Z,12.45
2022-10-18T02:20:02.994Z,12.88
2022-10-18T02:22:31.079Z,13.23
2022-10-18T02:24:57.815Z,12.88
2022-10-18T02:27:24.350Z,13.00
2022-10-18T02:29:50.874Z,13.27
2022-10-18T02:32:22.806Z,12.70
2022-10-18T02:35:00.953Z,12.00
2022-10-18T02:37:29.718Z,11.88
2022-10-18T02:39:56.249Z,11.90
2022-10-18T02:42:22.773Z,12.27
2022-10-18T02:44:49.320Z,12.40
2022-10-18T02:47:15.861Z,12.77
2022-10-18T02:49:42.378Z,12.80
2022-10-18T02:52:08.929Z,12.65
2022-10-18T02:54:35.510Z,12.37
2022-10-18T02:57:02.055Z,12.18
2022-10-18T02:59:28.579Z,11.98
2022-10-18T03:01:55.134Z,12.73
2022-10-18T03:04:21.764Z,12.45
2022-10-18T03:06:48.335Z,12.40
2022-10-18T03:09:14.883Z,12.65
2022-10-18T03:11:41.405Z,12.55
2022-10-18T03:14:07.940Z,12.57
2022-10-18T03:16:34.474Z,12.23
2022-10-18T03:19:01.007Z,12.68
2022-10-18T03:21:27.536Z,12.05
2022-10-18T03:23:54.047Z,12.52
2022-10-18T03:26:21.543Z,13.05
2022-10-18T03:28:48.195Z,12.93
2022-10-18T03:31:14.769Z,13.23
2022-10-18T03:33:41.288Z,11.90
2022-10-18T03:36:07.829Z,11.63
2022-10-18T03:38:34.379Z,11.70
2022-10-18T03:41:00.908Z,12.10
2022-10-18T03:43:27.430Z,12.13
2022-10-18T03:45:53.956Z,11.27
2022-10-18T03:48:20.485Z,11.43
2022-10-18T03:50:47.010Z,11.20
2022-10-18T03:53:13.578Z,12.23
2022-10-18T03:55:40.162Z,11.70
2022-10-18T03:58:06.871Z,12.18
2022-10-18T04:00:33.513Z,12.68
2022-10-18T04:03:00.046Z,13.00
2022-10-18T04:05:31.106Z,12.18
2022-10-18T04:07:57.918Z,12.10
2022-10-18T04:10:24.498Z,12.88
2022-10-18T04:12:51.041Z,12.52
2022-10-18T04:15:17.673Z,12.93
2022-10-18T04:17:44.226Z,12.82
2022-10-18T04:20:11.107Z,12.20
2022-10-18T04:22:37.627Z,13.53
2022-10-18T04:25:04.535Z,12.65
2022-10-18T04:27:31.263Z,12.47
2022-10-18T04:29:57.910Z,12.40
2022-10-18T04:32:24.439Z,12.68
2022-10-18T04:34:50.968Z,12.88
2022-10-18T04:37:17.518Z,12.82
2022-10-18T04:39:49.905Z,13.18
2022-10-18T04:42:19.316Z,12.55
2022-10-18T04:44:45.875Z,12.80
2022-10-18T04:47:12.430Z,12.80
2022-10-18T04:49:38.965Z,13.57
2022-10-18T04:52:05.519Z,12.63
2022-10-18T04:54:32.043Z,13.00
2022-10-18T04:56:58.630Z,14.30
2022-10-18T04:59:25.179Z,13.77
2022-10-18T05:01:51.806Z,14.02
2022-10-18T05:04:18.395Z,13.35
2022-10-18T05:06:44.918Z,13.20
2022-10-18T05:09:11.466Z,13.43
2022-10-18T05:11:38.178Z,12.70
2022-10-18T05:14:04.940Z,13.35
2022-10-18T05:16:32.428Z,13.45
2022-10-18T05:18:58.946Z,12.32
2022-10-18T05:21:25.505Z,13.62
2022-10-18T05:23:55.920Z,12.82
2022-10-18T05:26:22.467Z,12.37
2022-10-18T05:28:51.951Z,12.48
2022-10-18T05:31:18.540Z,13.02
2022-10-18T05:33:45.071Z,13.55
2022-10-18T05:36:11.634Z,14.10
2022-10-18T05:38:40.268Z,13.75
2022-10-18T05:41:07.064Z,13.98
2022-10-18T05:43:33.690Z,14.40
2022-10-18T05:46:00.281Z,13.65
2022-10-18T05:48:27.808Z,14.32
2022-10-18T05:50:54.359Z,14.68
2022-10-18T05:53:37.474Z,13.80
2022-10-18T05:56:05.295Z,13.90
2022-10-18T05:58:31.834Z,12.52
2022-10-18T06:01:02.278Z,14.20
2022-10-18T06:03:30.683Z,13.23
2022-10-18T06:06:08.357Z,13.62
2022-10-18T06:08:35.078Z,12.93
2022-10-18T06:11:07.256Z,13.33
2022-10-18T06:13:33.999Z,13.73
2022-10-18T06:16:00.651Z,13.33
2022-10-18T06:18:27.182Z,13.05
2022-10-18T06:20:58.170Z,13.23
2022-10-18T06:23:25.549Z,12.75
2022-10-18T06:25:52.110Z,13.13
2022-10-18T06:28:18.664Z,14.45
2022-10-18T06:30:45.298Z,13.57
2022-10-18T06:33:14.674Z,12.60
2022-10-18T06:35:41.220Z,12.50
2022-10-18T06:38:07.778Z,12.77
2022-10-18T06:40:38.149Z,12.98
2022-10-18T06:43:19.993Z,13.30
2022-10-18T06:45:47.580Z,12.50
2022-10-18T06:48:14.135Z,12.83
2022-10-18T06:50:40.732Z,13.98
2022-10-18T06:53:08.959Z,13.17
2022-10-18T06:55:35.923Z,13.38
2022-10-18T06:58:02.638Z,13.62
2022-10-18T07:00:29.377Z,12.93
2022-10-18T07:02:57.208Z,12.52
2022-10-18T07:05:23.850Z,13.27
2022-10-18T07:07:54.218Z,12.60
2022-10-18T07:10:23.507Z,11.70
2022-10-18T07:12:51.558Z,11.88
2022-10-18T07:15:22.687Z,11.85
2022-10-18T07:17:49.419Z,12.80
2022-10-18T07:20:16.131Z,12.75
2022-10-18T07:22:42.698Z,11.88
2022-10-18T07:25:09.453Z,14.80
2022-10-18T07:27:37.875Z,12.85
2022-10-18T07:30:08.252Z,13.43
2022-10-18T07:32:34.800Z,13.13
2022-10-18T07:35:02.457Z,13.07
2022-10-18T07:37:32.778Z,14.73
2022-10-18T07:39:59.564Z,14.23
2022-10-18T07:42:26.102Z,14.00
2022-10-18T07:44:52.660Z,13.87
2022-10-18T07:47:19.284Z,14.20
2022-10-18T07:49:45.974Z,13.87
2022-10-18T07:52:12.584Z,13.48
2022-10-18T07:54:39.208Z,13.60
2022-10-18T07:57:07.075Z,14.13
2022-10-18T07:59:33.639Z,13.13
2022-10-18T08:02:00.252Z,15.37
2022-10-18T08:04:26.888Z,13.88
2022-10-18T08:06:53.447Z,13.77
2022-10-18T08:09:20.001Z,13.13
2022-10-18T08:11:46.575Z,12.15
2022-10-18T08:14:13.126Z,13.57
2022-10-18T08:16:39.669Z,14.60
2022-10-18T08:19:06.228Z,13.52
2022-10-18T08:21:32.797Z,13.63
2022-10-18T08:23:59.384Z,12.40
2022-10-18T08:26:26.002Z,14.30
2022-10-18T08:28:58.400Z,14.95
2022-10-18T08:31:36.413Z,15.68
2022-10-18T08:34:02.989Z,15.25
2022-10-18T08:36:30.799Z,13.20
2022-10-18T08:38:57.345Z,13.25
2022-10-18T08:41:27.372Z,12.67
2022-10-18T08:44:15.935Z,11.12
2022-10-18T08:46:45.498Z,9.77
2022-10-18T08:49:45.626Z,10.93
2022-10-18T08:52:31.779Z,9.32
2022-10-18T08:55:29.189Z,10.60
2022-10-18T08:57:57.663Z,10.25
2022-10-18T09:00:25.519Z,8.77
2022-10-18T09:03:07.520Z,8.27
2022-10-18T09:05:49.158Z,9.00
2022-10-18T09:08:33.607Z,8.25
2022-10-18T09:11:21.275Z,8.80
2022-10-18T09:13:55.887Z,8.65
2022-10-18T09:16:46.788Z,9.13
2022-10-18T09:19:47.852Z,8.68
2022-10-18T09:22:16.354Z,9.32
2022-10-18T09:25:09.976Z,9.20
2022-10-18T09:27:46.418Z,8.38
2022-10-18T09:30:36.367Z,7.97
2022-10-18T09:33:18.037Z,9.20
2022-10-18T09:35:52.886Z,9.02
2022-10-18T09:38:20.725Z,7.97
2022-10-18T09:40:56.652Z,7.15
2022-10-18T09:43:24.955Z,7.40
2022-10-18T09:45:52.327Z,6.95
2022-10-18T09:48:29.433Z,8.32
2022-10-18T09:51:02.666Z,7.47
2022-10-18T09:53:51.053Z,6.85
2022-10-18T09:56:42.551Z,8.45
2022-10-18T10:00:01.766Z,7.00
2022-10-18T10:02:28.392Z,7.05
2022-10-18T10:04:55.739Z,6.35
2022-10-18T10:07:29.783Z,6.68
2022-10-18T10:10:05.019Z,6.12
2022-10-18T10:12:35.905Z,6.32
2022-10-18T10:15:20.339Z,5.40
2022-10-18T10:18:02.629Z,6.35
2022-10-18T10:20:44.274Z,5.82
2022-10-18T10:23:30.585Z,5.87
2022-10-18T10:26:02.009Z,5.90
2022-10-18T10:28:30.620Z,5.87
2022-10-18T10:31:26.408Z,5.57
2022-10-18T10:34:05.717Z,5.90
2022-10-18T10:36:32.827Z,5.70
2022-10-18T10:39:18.752Z,5.45
2022-10-18T10:41:48.698Z,4.93
2022-10-18T10:44:19.890Z,5.15
2022-10-18T10:46:46.466Z,5.72
2022-10-18T10:49:40.747Z,5.87
2022-10-18T10:52:09.259Z,5.55
2022-10-18T10:55:11.006Z,5.80
2022-10-18T10:57:43.746Z,6.78
2022-10-18T11:00:11.560Z,5.87
2022-10-18T11:02:38.223Z,5.90
2022-10-18T11:05:24.606Z,5.10
2022-10-18T11:08:02.098Z,5.72
2022-10-18T11:10:29.509Z,6.30
2022-10-18T11:13:35.587Z,6.22
2022-10-18T11:16:07.396Z,6.10
2022-10-18T11:18:34.768Z,5.87
2022-10-18T11:21:17.647Z,6.55
2022-10-18T11:23:44.630Z,5.15
2022-10-18T11:26:11.015Z,5.00
2022-10-18T11:29:02.007Z,5.55
2022-10-18T11:32:05.894Z,5.30
2022-10-18T11:34:54.135Z,5.12
2022-10-18T11:37:41.078Z,5.50
2022-10-18T11:40:32.432Z,6.10
2022-10-18T11:43:10.590Z,7.07
2022-10-18T11:48:44.652Z,4.65
2022-10-18T11:52:06.815Z,4.82
2022-10-18T11:55:04.681Z,5.82
2022-10-18T11:57:49.303Z,5.37
2022-10-18T12:00:17.872Z,5.87
2022-10-18T12:02:48.308Z,5.97
2022-10-18T12:05:24.000Z,5.37
2022-10-18T12:07:58.837Z,6.03
2022-10-18T12:10:39.292Z,4.82
2022-10-18T12:15:44.605Z,5.28
2022-10-18T12:18:15.073Z,5.20
2022-10-18T12:20:49.351Z,6.20
2022-10-18T12:23:50.498Z,6.53
2022-10-18T12:26:17.067Z,4.85
2022-10-18T12:28:51.536Z,4.93
2022-10-18T12:31:49.500Z,4.78
2022-10-18T12:34:21.811Z,5.47
2022-10-18T12:37:26.487Z,5.87
2022-10-18T12:40:18.482Z,4.45
2022-10-18T12:42:48.218Z,4.62
2022-10-18T12:45:28.986Z,5.43
2022-10-18T12:47:59.140Z,4.18
2022-10-18T12:50:39.279Z,4.75
2022-10-18T12:53:25.214Z,5.75
2022-10-18T12:55:51.909Z,5.70
2022-10-18T12:58:24.505Z,5.30
2022-10-18T13:00:52.611Z,4.80
2022-10-18T13:03:31.105Z,4.85
2022-10-18T13:06:01.802Z,4.60
2022-10-18T13:08:34.873Z,4.85
2022-10-18T13:11:01.324Z,4.12
2022-10-18T13:13:53.052Z,5.70
2022-10-18T13:16:22.628Z,5.22
2022-10-18T13:19:28.285Z,4.22
2022-10-18T13:22:13.328Z,5.03
2022-10-18T13:24:46.729Z,4.62
2022-10-18T13:27:44.886Z,4.40
2022-10-18T13:30:17.714Z,5.50
2022-10-18T13:33:16.770Z,3.83
2022-10-18T13:35:46.264Z,3.90
2022-10-18T13:38:34.020Z,4.47
2022-10-18T13:41:08.615Z,5.15
2022-10-18T13:44:26.055Z,4.50
2022-10-18T13:46:52.482Z,3.87
2022-10-18T13:49:41.225Z,4.53
2022-10-18T13:55:14.561Z,4.10
2022-10-18T13:57:44.892Z,3.95
2022-10-18T14:00:48.368Z,4.47
2022-10-18T14:03:58.715Z,4.87
2022-10-18T14:06:27.110Z,5.00
2022-10-18T14:08:58.278Z,4.20
2022-10-18T14:11:30.878Z,3.47
2022-10-18T14:14:15.387Z,4.55
2022-10-18T14:17:17.647Z,5.68
2022-10-18T14:20:16.517Z,4.85
2022-10-18T14:22:46.514Z,4.23
2022-10-18T14:25:42.190Z,5.30
2022-10-18T14:28:18.513Z,4.40
2022-10-18T14:30:54.910Z,4.00
2022-10-18T14:33:30.498Z,4.45
2022-10-18T14:36:18.064Z,5.78
2022-10-18T14:38:53.663Z,4.65
2022-10-18T14:41:20.078Z,4.32
2022-10-18T14:43:47.996Z,4.47
2022-10-18T14:46:17.569Z,5.05
2022-10-18T14:48:54.822Z,5.18
2022-10-18T14:51:21.562Z,4.70
2022-10-18T14:53:48.230Z,3.97
2022-10-18T14:56:21.508Z,5.82
2022-10-18T14:58:48.090Z,5.12
2022-10-18T15:01:18.438Z,6.03
2022-10-18T15:03:45.057Z,5.22
2022-10-18T15:06:15.546Z,4.77
2022-10-18T15:08:42.369Z,6.00
2022-10-18T15:11:11.853Z,6.57
2022-10-18T15:14:02.973Z,5.65
2022-10-18T15:16:30.632Z,4.72
2022-10-18T15:19:15.400Z,5.35
2022-10-18T15:22:07.993Z,5.97
2022-10-18T15:24:41.866Z,5.03
2022-10-18T15:27:22.343Z,4.73
2022-10-18T15:29:49.101Z,5.07
2022-10-18T15:32:27.086Z,5.73
2022-10-18T15:34:53.811Z,6.28
2022-10-18T15:37:35.778Z,6.50
2022-10-18T15:40:23.860Z,6.07
2022-10-18T15:42:51.221Z,6.13
2022-10-18T15:45:23.654Z,5.60
2022-10-18T15:48:13.008Z,7.20
2022-10-18T15:50:50.500Z,6.32
2022-10-18T15:53:23.029Z,5.93
2022-10-18T15:56:01.629Z,7.60
2022-10-18T15:58:41.122Z,6.07
2022-10-18T16:01:21.071Z,5.97
2022-10-18T16:03:47.937Z,5.97
2022-10-18T16:06:18.031Z,6.55
2022-10-18T16:08:52.105Z,6.80
2022-10-18T16:11:20.494Z,6.60
2022-10-18T16:13:47.143Z,6.03
2022-10-18T16:16:18.783Z,8.07
2022-10-18T16:18:45.500Z,7.82
2022-10-18T16:21:26.368Z,6.03
2022-10-18T16:23:52.994Z,6.68
2022-10-18T16:26:19.561Z,6.60
2022-10-18T16:28:46.514Z,6.70
2022-10-18T16:31:18.370Z,6.28
2022-10-18T16:33:45.531Z,7.40
2022-10-18T16:36:16.198Z,7.18
2022-10-18T16:38:43.040Z,7.30
2022-10-18T16:41:10.182Z,7.30
2022-10-18T16:43:36.820Z,6.72
2022-10-18T16:46:03.898Z,6.32
2022-10-18T16:48:30.701Z,7.70
2022-10-18T16:50:57.598Z,8.07
2022-10-18T16:53:25.068Z,7.15
2022-10-18T16:56:01.299Z,7.03
2022-10-18T16:58:28.306Z,7.45
2022-10-18T17:00:54.956Z,7.32
2022-10-18T17:03:21.618Z,7.68
2022-10-18T17:05:48.171Z,7.50
2022-10-18T17:08:22.636Z,7.37
2022-10-18T17:10:49.907Z,7.03
2022-10-18T17:13:16.639Z,6.87
2022-10-18T17:15:43.199Z,8.37
2022-10-18T17:18:17.203Z,7.32
2022-10-18T17:20:43.960Z,8.38
2022-10-18T17:23:10.623Z,8.03
2022-10-18T17:25:46.233Z,7.45
2022-10-18T17:28:24.274Z,7.82
2022-10-18T17:30:50.806Z,7.47
2022-10-18T17:33:17.355Z,8.82
2022-10-18T17:35:44.322Z,7.75
2022-10-18T17:38:11.009Z,7.57
2022-10-18T17:40:40.649Z,7.68
2022-10-18T17:43:07.274Z,7.72
2022-10-18T17:45:33.851Z,9.23
2022-10-18T17:48:00.400Z,9.23
2022-10-18T17:50:27.028Z,9.65
2022-10-18T17:52:53.565Z,10.00
2022-10-18T17:55:20.318Z,9.93
2022-10-18T17:57:46.871Z,10.67
2022-10-18T18:00:13.603Z,10.10
2022-10-18T18:02:41.862Z,9.43
2022-10-18T18:05:09.571Z,9.70
2022-10-18T18:07:36.107Z,9.73
2022-10-18T18:10:02.692Z,10.52
2022-10-18T18:12:29.281Z,10.27
2022-10-18T18:14:56.241Z,9.95
2022-10-18T18:17:33.668Z,9.98
2022-10-18T18:22:27.610Z,8.57
2022-10-18T18:24:54.236Z,8.63
2022-10-18T18:27:20.769Z,8.52
2022-10-18T18:29:47.337Z,10.82
2022-10-18T18:32:14.063Z,9.80
2022-10-18T18:34:41.648Z,9.85
2022-10-18T18:37:08.615Z,8.80
2022-10-18T18:39:35.832Z,8.25
2022-10-18T18:42:02.913Z,8.40
2022-10-18T18:44:29.539Z,8.32
2022-10-18T18:46:56.354Z,10.38
2022-10-18T18:49:22.940Z,9.03
2022-10-18T18:51:49.472Z,8.48
2022-10-18T18:54:16.184Z,8.27
2022-10-18T18:56:42.801Z,8.70
2022-10-18T18:59:12.292Z,7.72
2022-10-18T19:01:38.884Z,8.45
2022-10-18T19:04:06.314Z,7.85
2022-10-18T19:06:37.847Z,8.30
2022-10-18T19:09:19.617Z,8.35
2022-10-18T19:11:46.994Z,8.25
2022-10-18T19:14:13.651Z,8.35
2022-10-18T19:16:50.622Z,8.45
2022-10-18T19:19:18.704Z,8.98
2022-10-18T19:21:49.693Z,9.20
2022-10-18T19:24:16.238Z,9.75
2022-10-18T19:26:47.236Z,9.20
2022-10-18T19:29:16.110Z,8.93
2022-10-18T19:31:43.005Z,8.90
2022-10-18T19:34:11.587Z,8.80
2022-10-18T19:36:38.431Z,8.57
2022-10-18T19:39:05.719Z,9.87
2022-10-18T19:41:32.289Z,9.25
2022-10-18T19:43:58.875Z,9.60
2022-10-18T19:46:25.437Z,9.18
2022-10-18T19:48:54.110Z,9.95
2022-10-18T19:51:24.043Z,11.02
2022-10-18T19:53:51.983Z,9.75
2022-10-18T19:56:20.866Z,9.98
2022-10-18T19:58:47.678Z,10.52
2022-10-18T20:01:14.575Z,10.00
2022-10-18T20:03:41.501Z,11.12
2022-10-18T20:06:08.071Z,10.70
2022-10-18T20:08:35.032Z,10.73
2022-10-18T20:11:05.994Z,10.45
2022-10-18T20:13:32.744Z,11.50
2022-10-18T20:15:59.341Z,11.32
2022-10-18T20:18:26.052Z,10.77
2022-10-18T20:20:52.748Z,13.30
2022-10-18T20:23:19.548Z,11.57
2022-10-18T20:25:59.263Z,10.23
2022-10-18T20:28:25.981Z,10.70
2022-10-18T20:31:04.634Z,11.25
2022-10-18T20:33:31.375Z,11.68
2022-10-18T20:36:17.380Z,10.40
2022-10-18T20:38:44.990Z,11.23
2022-10-18T20:41:19.589Z,10.70
2022-10-18T20:43:57.080Z,10.68
2022-10-18T20:46:23.641Z,11.07
2022-10-18T20:48:50.732Z,9.73
2022-10-18T20:51:17.374Z,10.43
2022-10-18T20:53:44.303Z,10.18
2022-10-18T20:56:12.743Z,10.95
2022-10-18T20:58:39.855Z,10.52
2022-10-18T21:01:10.631Z,11.65
2022-10-18T21:03:41.651Z,11.07
2022-10-18T21:06:09.919Z,10.50
2022-10-18T21:08:36.453Z,10.88
2022-10-18T21:11:03.313Z,10.82
2022-10-18T21:13:29.898Z,10.97
2022-10-18T21:15:56.975Z,9.85
2022-10-18T21:18:27.146Z,11.05
2022-10-18T21:20:53.727Z,10.48
2022-10-18T21:23:20.576Z,11.95
2022-10-18T21:25:47.861Z,11.87
2022-10-18T21:28:15.175Z,12.10
2022-10-18T21:30:41.839Z,11.07
2022-10-18T21:33:08.426Z,10.23
2022-10-18T21:35:36.422Z,11.55
2022-10-18T21:38:03.770Z,10.90
2022-10-18T21:40:30.691Z,11.82
2022-10-18T21:42:57.330Z,12.05
2022-10-18T21:45:23.854Z,12.32
2022-10-18T21:47:50.417Z,11.38
2022-10-18T21:50:16.962Z,11.70
2022-10-18T21:52:43.527Z,11.35
2022-10-18T21:55:10.065Z,11.30
2022-10-18T22:00:08.479Z,11.63
2022-10-18T22:02:35.327Z,11.20
2022-10-18T22:05:02.036Z,11.02
2022-10-18T22:07:28.587Z,11.60
2022-10-18T22:09:55.157Z,11.75
2022-10-18T22:12:21.689Z,11.70
2022-10-18T22:14:48.338Z,12.68
2022-10-18T22:17:14.863Z,11.95
2022-10-18T22:19:43.403Z,11.73
2022-10-18T22:22:10.121Z,12.25
2022-10-18T22:24:38.076Z,12.18
2022-10-18T22:27:04.644Z,11.43
2022-10-18T22:29:31.175Z,11.80
2022-10-18T22:31:57.708Z,12.27
2022-10-18T22:34:27.531Z,13.38
2022-10-18T22:36:55.292Z,13.25
2022-10-18T22:39:21.949Z,13.57
2022-10-18T22:41:52.120Z,12.63
2022-10-18T22:44:18.656Z,12.25
2022-10-18T22:46:45.183Z,12.15
2022-10-18T22:49:11.851Z,12.93
2022-10-18T22:51:38.405Z,12.50
2022-10-18T22:54:04.984Z,12.00
2022-10-18T22:56:31.541Z,13.60
2022-10-18T22:58:58.116Z,11.80
2022-10-18T23:01:24.754Z,12.75
2022-10-18T23:03:57.846Z,12.55
2022-10-18T23:06:31.901Z,13.50
2022-10-18T23:08:59.655Z,11.98
2022-10-18T23:13:52.936Z,13.57
2022-10-18T23:16:19.665Z,13.07
2022-10-18T23:18:50.931Z,13.07
2022-10-18T23:21:17.680Z,14.18
2022-10-18T23:23:44.305Z,13.15
2022-10-18T23:26:14.399Z,12.10
2022-10-18T23:28:42.363Z,13.50
2022-10-18T23:31:10.800Z,12.32
2022-10-18T23:33:37.375Z,12.65
2022-10-18T23:36:04.831Z,12.80
2022-10-18T23:38:31.620Z,11.90
2022-10-18T23:40:58.371Z,13.17
2022-10-18T23:43:24.927Z,11.88
2022-10-18T23:45:51.479Z,12.25
2022-10-18T23:48:18.007Z,11.88
2022-10-18T23:50:44.534Z,13.20
2022-10-18T23:53:11.103Z,12.13
2022-10-18T23:55:37.666Z,12.23
2022-10-18T23:58:04.229Z,12.27
